Abbeville, Louisiana
Current Conditions -  °F | °C
As of 11:10 PM on Sunday 19 Oct 2014 (Local Time) from KIYA Reporting Station
Clear Clear  
Wind Chill: 60°   Ceiling: Unl
Heat Index: 60°   Visibility: 10mi
Dew Point: 57°   Wind: 3mph
Humidity: 88%   Direction: 40°NE
Pressure: 30.07"   Gusts: NA
Location:  29.97°N, 92.13°W
Report Text: KIYA 200410Z AUTO 04003KT 10SM CLR 16/14 A3007 RMK AO2 T01570138
Loading
Personal Weather Stations






























Interactive Weather Map
Tropical Storm Tracking
New forecast layout! Learn more

10-Day Weather Forecast

Advertisements
Track Severe Weather on mobile